sensor_id;sensor_type;location;lat;lon;timestamp;P1;durP1;ratioP1;P2;durP2;ratioP2
66421;SDS011;53228;51.380;0.098;2023-10-31T00:02:25;22.92;;;9.27;;
66421;SDS011;53228;51.380;0.098;2023-10-31T00:04:53;19.13;;;8.32;;
66421;SDS011;53228;51.380;0.098;2023-10-31T00:07:20;26.63;;;9.80;;
66421;SDS011;53228;51.380;0.098;2023-10-31T00:09:48;21.88;;;8.63;;
66421;SDS011;53228;51.380;0.098;2023-10-31T00:12:15;21.73;;;9.48;;
66421;SDS011;53228;51.380;0.098;2023-10-31T00:14:43;18.75;;;8.23;;
66421;SDS011;53228;51.380;0.098;2023-10-31T00:17:10;20.70;;;8.63;;
66421;SDS011;53228;51.380;0.098;2023-10-31T00:19:38;20.67;;;9.10;;
66421;SDS011;53228;51.380;0.098;2023-10-31T00:22:06;20.95;;;9.48;;
66421;SDS011;53228;51.380;0.098;2023-10-31T00:24:33;24.65;;;9.35;;
66421;SDS011;53228;51.380;0.098;2023-10-31T00:27:01;18.85;;;8.55;;
66421;SDS011;53228;51.380;0.098;2023-10-31T00:29:29;22.98;;;8.98;;
66421;SDS011;53228;51.380;0.098;2023-10-31T00:31:56;20.33;;;8.45;;
66421;SDS011;53228;51.380;0.098;2023-10-31T00:34:24;20.20;;;8.43;;
66421;SDS011;53228;51.380;0.098;2023-10-31T00:36:52;25.42;;;10.27;;
66421;SDS011;53228;51.380;0.098;2023-10-31T00:39:19;18.00;;;8.23;;
66421;SDS011;53228;51.380;0.098;2023-10-31T00:41:51;21.63;;;7.82;;
66421;SDS011;53228;51.380;0.098;2023-10-31T00:44:19;20.65;;;8.93;;
66421;SDS011;53228;51.380;0.098;2023-10-31T00:46:46;22.80;;;9.25;;
66421;SDS011;53228;51.380;0.098;2023-10-31T00:49:14;23.98;;;9.93;;
66421;SDS011;53228;51.380;0.098;2023-10-31T00:51:42;21.73;;;9.00;;
66421;SDS011;53228;51.380;0.098;2023-10-31T00:54:10;26.52;;;9.15;;
66421;SDS011;53228;51.380;0.098;2023-10-31T00:56:38;21.30;;;8.95;;
66421;SDS011;53228;51.380;0.098;2023-10-31T00:59:05;21.05;;;9.35;;
66421;SDS011;53228;51.380;0.098;2023-10-31T01:01:33;23.33;;;9.38;;
66421;SDS011;53228;51.380;0.098;2023-10-31T01:04:01;23.63;;;10.23;;
66421;SDS011;53228;51.380;0.098;2023-10-31T01:06:29;25.38;;;9.82;;
66421;SDS011;53228;51.380;0.098;2023-10-31T01:08:56;23.00;;;9.00;;
66421;SDS011;53228;51.380;0.098;2023-10-31T01:11:25;19.52;;;9.05;;
66421;SDS011;53228;51.380;0.098;2023-10-31T01:13:53;21.40;;;8.57;;
66421;SDS011;53228;51.380;0.098;2023-10-31T01:16:20;24.80;;;10.15;;
66421;SDS011;53228;51.380;0.098;2023-10-31T01:18:48;23.73;;;9.82;;
66421;SDS011;53228;51.380;0.098;2023-10-31T01:21:16;19.65;;;9.07;;
66421;SDS011;53228;51.380;0.098;2023-10-31T01:23:46;25.15;;;9.20;;
66421;SDS011;53228;51.380;0.098;2023-10-31T01:26:13;24.17;;;9.48;;
66421;SDS011;53228;51.380;0.098;2023-10-31T01:28:41;23.92;;;10.27;;
66421;SDS011;53228;51.380;0.098;2023-10-31T01:31:09;25.02;;;9.30;;
66421;SDS011;53228;51.380;0.098;2023-10-31T01:33:37;19.08;;;8.43;;
66421;SDS011;53228;51.380;0.098;2023-10-31T01:36:06;21.02;;;8.57;;
66421;SDS011;53228;51.380;0.098;2023-10-31T01:38:34;26.70;;;9.43;;
66421;SDS011;53228;51.380;0.098;2023-10-31T01:41:02;25.55;;;9.20;;
66421;SDS011;53228;51.380;0.098;2023-10-31T01:43:31;26.48;;;9.52;;
66421;SDS011;53228;51.380;0.098;2023-10-31T01:46:03;18.70;;;8.25;;
66421;SDS011;53228;51.380;0.098;2023-10-31T01:48:32;26.23;;;9.60;;
66421;SDS011;53228;51.380;0.098;2023-10-31T01:51:01;20.60;;;9.50;;
66421;SDS011;53228;51.380;0.098;2023-10-31T01:53:34;25.75;;;9.73;;
66421;SDS011;53228;51.380;0.098;2023-10-31T01:56:03;22.50;;;8.95;;
66421;SDS011;53228;51.380;0.098;2023-10-31T01:58:33;23.17;;;8.85;;
66421;SDS011;53228;51.380;0.098;2023-10-31T02:01:03;18.73;;;8.27;;
66421;SDS011;53228;51.380;0.098;2023-10-31T02:03:31;20.27;;;9.30;;
66421;SDS011;53228;51.380;0.098;2023-10-31T02:06:00;23.38;;;9.10;;
66421;SDS011;53228;51.380;0.098;2023-10-31T02:08:28;22.52;;;8.20;;
66421;SDS011;53228;51.380;0.098;2023-10-31T02:10:55;22.95;;;8.27;;
66421;SDS011;53228;51.380;0.098;2023-10-31T02:13:23;22.50;;;8.10;;
66421;SDS011;53228;51.380;0.098;2023-10-31T02:15:51;19.85;;;8.35;;
66421;SDS011;53228;51.380;0.098;2023-10-31T02:18:19;20.15;;;7.78;;
66421;SDS011;53228;51.380;0.098;2023-10-31T02:20:47;17.90;;;7.75;;
66421;SDS011;53228;51.380;0.098;2023-10-31T02:23:15;24.58;;;8.25;;
66421;SDS011;53228;51.380;0.098;2023-10-31T02:25:43;14.43;;;6.20;;
66421;SDS011;53228;51.380;0.098;2023-10-31T02:28:11;18.95;;;7.80;;
66421;SDS011;53228;51.380;0.098;2023-10-31T02:30:39;20.73;;;7.03;;
66421;SDS011;53228;51.380;0.098;2023-10-31T02:33:07;20.30;;;7.93;;
66421;SDS011;53228;51.380;0.098;2023-10-31T02:35:35;22.45;;;8.55;;
66421;SDS011;53228;51.380;0.098;2023-10-31T02:38:03;20.00;;;7.93;;
66421;SDS011;53228;51.380;0.098;2023-10-31T02:40:30;19.20;;;6.70;;
66421;SDS011;53228;51.380;0.098;2023-10-31T02:42:58;18.58;;;7.57;;
66421;SDS011;53228;51.380;0.098;2023-10-31T02:45:26;17.85;;;8.13;;
66421;SDS011;53228;51.380;0.098;2023-10-31T02:47:54;22.00;;;8.48;;
66421;SDS011;53228;51.380;0.098;2023-10-31T02:50:22;24.95;;;8.57;;
66421;SDS011;53228;51.380;0.098;2023-10-31T02:52:50;16.83;;;6.75;;
66421;SDS011;53228;51.380;0.098;2023-10-31T02:55:17;17.50;;;7.70;;
66421;SDS011;53228;51.380;0.098;2023-10-31T02:57:45;17.42;;;7.22;;
66421;SDS011;53228;51.380;0.098;2023-10-31T03:00:13;16.67;;;6.55;;
66421;SDS011;53228;51.380;0.098;2023-10-31T03:02:41;17.80;;;6.65;;
66421;SDS011;53228;51.380;0.098;2023-10-31T03:05:09;16.90;;;5.85;;
66421;SDS011;53228;51.380;0.098;2023-10-31T03:07:37;19.00;;;7.40;;
66421;SDS011;53228;51.380;0.098;2023-10-31T03:10:04;16.13;;;6.13;;
66421;SDS011;53228;51.380;0.098;2023-10-31T03:12:33;14.48;;;5.90;;
66421;SDS011;53228;51.380;0.098;2023-10-31T03:15:02;13.38;;;5.72;;
66421;SDS011;53228;51.380;0.098;2023-10-31T03:17:30;13.55;;;6.47;;
66421;SDS011;53228;51.380;0.098;2023-10-31T03:19:58;16.40;;;6.13;;
66421;SDS011;53228;51.380;0.098;2023-10-31T03:22:25;14.90;;;5.70;;
66421;SDS011;53228;51.380;0.098;2023-10-31T03:24:53;13.50;;;5.88;;
66421;SDS011;53228;51.380;0.098;2023-10-31T03:27:21;12.98;;;5.43;;
66421;SDS011;53228;51.380;0.098;2023-10-31T03:29:48;16.48;;;5.72;;
66421;SDS011;53228;51.380;0.098;2023-10-31T03:32:16;13.60;;;5.30;;
66421;SDS011;53228;51.380;0.098;2023-10-31T03:34:46;16.30;;;5.60;;
66421;SDS011;53228;51.380;0.098;2023-10-31T03:37:14;16.08;;;6.65;;
66421;SDS011;53228;51.380;0.098;2023-10-31T03:39:41;11.20;;;5.38;;
66421;SDS011;53228;51.380;0.098;2023-10-31T03:42:09;12.80;;;5.10;;
66421;SDS011;53228;51.380;0.098;2023-10-31T03:44:37;12.70;;;5.22;;
66421;SDS011;53228;51.380;0.098;2023-10-31T03:47:04;15.45;;;5.30;;
66421;SDS011;53228;51.380;0.098;2023-10-31T03:49:32;13.27;;;4.78;;
66421;SDS011;53228;51.380;0.098;2023-10-31T03:52:00;11.15;;;4.53;;
66421;SDS011;53228;51.380;0.098;2023-10-31T03:54:27;9.80;;;4.93;;
66421;SDS011;53228;51.380;0.098;2023-10-31T03:56:55;10.85;;;5.20;;
66421;SDS011;53228;51.380;0.098;2023-10-31T03:59:22;11.85;;;4.90;;
66421;SDS011;53228;51.380;0.098;2023-10-31T04:01:50;11.30;;;4.72;;
66421;SDS011;53228;51.380;0.098;2023-10-31T04:04:18;12.18;;;5.43;;
66421;SDS011;53228;51.380;0.098;2023-10-31T04:06:45;11.30;;;4.50;;
66421;SDS011;53228;51.380;0.098;2023-10-31T04:09:13;8.85;;;4.43;;
66421;SDS011;53228;51.380;0.098;2023-10-31T04:11:41;11.45;;;4.72;;
66421;SDS011;53228;51.380;0.098;2023-10-31T04:14:10;9.85;;;4.50;;
66421;SDS011;53228;51.380;0.098;2023-10-31T04:16:41;11.23;;;5.32;;
66421;SDS011;53228;51.380;0.098;2023-10-31T04:19:13;8.43;;;4.75;;
66421;SDS011;53228;51.380;0.098;2023-10-31T04:21:40;9.43;;;4.18;;
66421;SDS011;53228;51.380;0.098;2023-10-31T04:24:08;9.43;;;4.25;;
66421;SDS011;53228;51.380;0.098;2023-10-31T04:26:36;10.98;;;4.35;;
66421;SDS011;53228;51.380;0.098;2023-10-31T04:29:03;8.73;;;4.13;;
66421;SDS011;53228;51.380;0.098;2023-10-31T04:31:31;11.73;;;4.15;;
66421;SDS011;53228;51.380;0.098;2023-10-31T04:34:10;8.38;;;3.75;;
66421;SDS011;53228;51.380;0.098;2023-10-31T04:36:37;13.05;;;4.30;;
66421;SDS011;53228;51.380;0.098;2023-10-31T04:39:05;9.07;;;4.75;;
66421;SDS011;53228;51.380;0.098;2023-10-31T04:41:33;17.48;;;5.97;;
66421;SDS011;53228;51.380;0.098;2023-10-31T04:44:01;9.07;;;4.65;;
66421;SDS011;53228;51.380;0.098;2023-10-31T04:46:29;9.85;;;4.70;;
66421;SDS011;53228;51.380;0.098;2023-10-31T04:48:57;9.38;;;4.57;;
66421;SDS011;53228;51.380;0.098;2023-10-31T04:51:25;8.65;;;4.20;;
66421;SDS011;53228;51.380;0.098;2023-10-31T04:53:52;10.40;;;4.30;;
66421;SDS011;53228;51.380;0.098;2023-10-31T04:56:20;9.25;;;4.35;;
66421;SDS011;53228;51.380;0.098;2023-10-31T04:58:48;9.50;;;4.35;;
66421;SDS011;53228;51.380;0.098;2023-10-31T05:01:15;8.32;;;4.15;;
66421;SDS011;53228;51.380;0.098;2023-10-31T05:03:43;7.80;;;4.10;;
66421;SDS011;53228;51.380;0.098;2023-10-31T05:06:11;6.90;;;3.65;;
66421;SDS011;53228;51.380;0.098;2023-10-31T05:08:39;8.25;;;4.68;;
66421;SDS011;53228;51.380;0.098;2023-10-31T05:11:07;11.15;;;4.43;;
66421;SDS011;53228;51.380;0.098;2023-10-31T05:13:35;8.50;;;4.05;;
66421;SDS011;53228;51.380;0.098;2023-10-31T05:16:02;9.63;;;4.00;;
66421;SDS011;53228;51.380;0.098;2023-10-31T05:18:30;9.13;;;3.67;;
66421;SDS011;53228;51.380;0.098;2023-10-31T05:20:58;6.63;;;3.80;;
66421;SDS011;53228;51.380;0.098;2023-10-31T05:23:25;8.20;;;4.32;;
66421;SDS011;53228;51.380;0.098;2023-10-31T05:25:53;8.38;;;4.13;;
66421;SDS011;53228;51.380;0.098;2023-10-31T05:28:22;8.15;;;4.57;;
66421;SDS011;53228;51.380;0.098;2023-10-31T05:30:53;10.63;;;4.50;;
66421;SDS011;53228;51.380;0.098;2023-10-31T05:33:20;6.90;;;3.53;;
66421;SDS011;53228;51.380;0.098;2023-10-31T05:35:50;5.15;;;3.28;;
66421;SDS011;53228;51.380;0.098;2023-10-31T05:38:17;7.82;;;3.72;;
66421;SDS011;53228;51.380;0.098;2023-10-31T05:40:45;8.23;;;3.25;;
66421;SDS011;53228;51.380;0.098;2023-10-31T05:43:13;6.32;;;3.10;;
66421;SDS011;53228;51.380;0.098;2023-10-31T05:45:40;7.85;;;3.42;;
66421;SDS011;53228;51.380;0.098;2023-10-31T05:48:11;9.32;;;3.63;;
66421;SDS011;53228;51.380;0.098;2023-10-31T05:50:42;7.10;;;3.65;;
66421;SDS011;53228;51.380;0.098;2023-10-31T05:53:09;7.15;;;3.70;;
66421;SDS011;53228;51.380;0.098;2023-10-31T05:55:39;8.30;;;3.95;;
66421;SDS011;53228;51.380;0.098;2023-10-31T05:58:07;8.50;;;4.10;;
66421;SDS011;53228;51.380;0.098;2023-10-31T06:00:35;11.52;;;4.97;;
66421;SDS011;53228;51.380;0.098;2023-10-31T06:03:04;15.23;;;7.32;;
66421;SDS011;53228;51.380;0.098;2023-10-31T06:05:32;11.63;;;4.82;;
66421;SDS011;53228;51.380;0.098;2023-10-31T06:07:59;10.50;;;5.75;;
66421;SDS011;53228;51.380;0.098;2023-10-31T06:10:30;10.20;;;4.78;;
66421;SDS011;53228;51.380;0.098;2023-10-31T06:12:58;14.45;;;5.63;;
66421;SDS011;53228;51.380;0.098;2023-10-31T06:15:25;9.15;;;4.72;;
66421;SDS011;53228;51.380;0.098;2023-10-31T06:17:53;13.05;;;5.15;;
66421;SDS011;53228;51.380;0.098;2023-10-31T06:20:20;15.80;;;7.57;;
66421;SDS011;53228;51.380;0.098;2023-10-31T06:22:49;14.20;;;6.28;;
66421;SDS011;53228;51.380;0.098;2023-10-31T06:25:16;13.40;;;6.32;;
66421;SDS011;53228;51.380;0.098;2023-10-31T06:27:44;18.95;;;9.82;;
66421;SDS011;53228;51.380;0.098;2023-10-31T06:30:12;13.02;;;6.00;;
66421;SDS011;53228;51.380;0.098;2023-10-31T06:32:53;11.25;;;6.60;;
66421;SDS011;53228;51.380;0.098;2023-10-31T06:35:22;19.38;;;7.32;;
66421;SDS011;53228;51.380;0.098;2023-10-31T06:37:55;16.67;;;6.72;;
66421;SDS011;53228;51.380;0.098;2023-10-31T06:40:24;16.48;;;7.10;;
66421;SDS011;53228;51.380;0.098;2023-10-31T06:42:52;18.02;;;6.45;;
66421;SDS011;53228;51.380;0.098;2023-10-31T06:45:20;19.75;;;7.55;;
66421;SDS011;53228;51.380;0.098;2023-10-31T06:47:48;14.32;;;6.82;;
66421;SDS011;53228;51.380;0.098;2023-10-31T06:50:15;18.67;;;8.15;;
66421;SDS011;53228;51.380;0.098;2023-10-31T06:52:46;16.20;;;7.18;;
66421;SDS011;53228;51.380;0.098;2023-10-31T06:55:14;14.63;;;6.63;;
66421;SDS011;53228;51.380;0.098;2023-10-31T06:57:42;16.27;;;6.85;;
66421;SDS011;53228;51.380;0.098;2023-10-31T07:00:11;16.45;;;6.68;;
66421;SDS011;53228;51.380;0.098;2023-10-31T07:02:39;15.15;;;6.60;;
66421;SDS011;53228;51.380;0.098;2023-10-31T07:05:07;18.80;;;7.40;;
66421;SDS011;53228;51.380;0.098;2023-10-31T07:07:35;14.40;;;6.68;;
66421;SDS011;53228;51.380;0.098;2023-10-31T07:10:03;15.45;;;7.03;;
66421;SDS011;53228;51.380;0.098;2023-10-31T07:12:31;16.33;;;7.18;;
66421;SDS011;53228;51.380;0.098;2023-10-31T07:14:59;11.85;;;5.70;;
66421;SDS011;53228;51.380;0.098;2023-10-31T07:17:26;14.93;;;6.22;;
66421;SDS011;53228;51.380;0.098;2023-10-31T07:19:54;17.65;;;7.00;;
66421;SDS011;53228;51.380;0.098;2023-10-31T07:22:22;21.77;;;7.45;;
66421;SDS011;53228;51.380;0.098;2023-10-31T07:24:51;19.70;;;8.85;;
66421;SDS011;53228;51.380;0.098;2023-10-31T07:27:19;25.40;;;10.10;;
66421;SDS011;53228;51.380;0.098;2023-10-31T07:29:47;18.45;;;7.68;;
66421;SDS011;53228;51.380;0.098;2023-10-31T07:32:15;19.98;;;8.15;;
66421;SDS011;53228;51.380;0.098;2023-10-31T07:34:43;18.38;;;7.95;;
66421;SDS011;53228;51.380;0.098;2023-10-31T07:37:11;22.55;;;7.38;;
66421;SDS011;53228;51.380;0.098;2023-10-31T07:39:39;18.85;;;8.20;;
66421;SDS011;53228;51.380;0.098;2023-10-31T07:42:06;16.55;;;6.95;;
66421;SDS011;53228;51.380;0.098;2023-10-31T07:44:35;21.40;;;7.35;;
66421;SDS011;53228;51.380;0.098;2023-10-31T07:47:02;15.20;;;6.32;;
66421;SDS011;53228;51.380;0.098;2023-10-31T07:49:30;17.13;;;7.72;;
66421;SDS011;53228;51.380;0.098;2023-10-31T07:51:58;17.90;;;7.63;;
66421;SDS011;53228;51.380;0.098;2023-10-31T07:54:26;18.67;;;7.68;;
66421;SDS011;53228;51.380;0.098;2023-10-31T07:56:53;21.75;;;7.63;;
66421;SDS011;53228;51.380;0.098;2023-10-31T07:59:21;23.85;;;8.93;;
66421;SDS011;53228;51.380;0.098;2023-10-31T08:01:49;25.42;;;9.18;;
66421;SDS011;53228;51.380;0.098;2023-10-31T08:04:19;28.00;;;11.75;;
66421;SDS011;53228;51.380;0.098;2023-10-31T08:06:47;34.20;;;14.65;;
66421;SDS011;53228;51.380;0.098;2023-10-31T08:09:14;31.77;;;15.23;;
66421;SDS011;53228;51.380;0.098;2023-10-31T08:11:43;28.08;;;15.73;;
66421;SDS011;53228;51.380;0.098;2023-10-31T08:14:10;18.80;;;8.77;;
66421;SDS011;53228;51.380;0.098;2023-10-31T08:16:38;17.88;;;8.40;;
66421;SDS011;53228;51.380;0.098;2023-10-31T08:19:06;25.75;;;13.25;;
66421;SDS011;53228;51.380;0.098;2023-10-31T08:21:33;16.33;;;7.38;;
66421;SDS011;53228;51.380;0.098;2023-10-31T08:24:02;24.88;;;13.98;;
66421;SDS011;53228;51.380;0.098;2023-10-31T08:26:31;20.27;;;7.00;;
66421;SDS011;53228;51.380;0.098;2023-10-31T08:28:59;21.45;;;7.50;;
66421;SDS011;53228;51.380;0.098;2023-10-31T08:31:26;21.88;;;8.38;;
66421;SDS011;53228;51.380;0.098;2023-10-31T08:33:54;17.10;;;7.47;;
66421;SDS011;53228;51.380;0.098;2023-10-31T08:36:22;18.90;;;8.55;;
66421;SDS011;53228;51.380;0.098;2023-10-31T08:38:49;17.38;;;7.20;;
66421;SDS011;53228;51.380;0.098;2023-10-31T08:41:17;20.85;;;8.93;;
66421;SDS011;53228;51.380;0.098;2023-10-31T08:43:47;21.05;;;8.45;;
66421;SDS011;53228;51.380;0.098;2023-10-31T08:46:14;14.98;;;7.05;;
66421;SDS011;53228;51.380;0.098;2023-10-31T08:48:42;17.77;;;8.60;;
66421;SDS011;53228;51.380;0.098;2023-10-31T08:51:10;20.45;;;8.27;;
66421;SDS011;53228;51.380;0.098;2023-10-31T08:53:38;15.68;;;7.45;;
66421;SDS011;53228;51.380;0.098;2023-10-31T08:56:05;14.00;;;7.07;;
66421;SDS011;53228;51.380;0.098;2023-10-31T08:58:34;24.67;;;7.88;;
66421;SDS011;53228;51.380;0.098;2023-10-31T09:01:02;18.27;;;8.75;;
66421;SDS011;53228;51.380;0.098;2023-10-31T09:03:29;17.17;;;8.23;;
66421;SDS011;53228;51.380;0.098;2023-10-31T09:05:58;15.85;;;7.90;;
66421;SDS011;53228;51.380;0.098;2023-10-31T09:08:26;18.90;;;8.20;;
66421;SDS011;53228;51.380;0.098;2023-10-31T09:10:54;17.95;;;8.07;;
66421;SDS011;53228;51.380;0.098;2023-10-31T09:13:21;23.17;;;8.05;;
66421;SDS011;53228;51.380;0.098;2023-10-31T09:15:49;20.63;;;8.27;;
66421;SDS011;53228;51.380;0.098;2023-10-31T09:18:17;20.30;;;8.48;;
66421;SDS011;53228;51.380;0.098;2023-10-31T09:20:44;18.45;;;9.05;;
66421;SDS011;53228;51.380;0.098;2023-10-31T09:23:12;18.65;;;7.72;;
66421;SDS011;53228;51.380;0.098;2023-10-31T09:25:40;22.95;;;8.13;;
66421;SDS011;53228;51.380;0.098;2023-10-31T09:28:07;18.52;;;8.70;;
66421;SDS011;53228;51.380;0.098;2023-10-31T09:30:35;20.90;;;9.23;;
66421;SDS011;53228;51.380;0.098;2023-10-31T09:33:03;19.27;;;8.93;;
66421;SDS011;53228;51.380;0.098;2023-10-31T09:35:30;17.42;;;7.60;;
66421;SDS011;53228;51.380;0.098;2023-10-31T09:37:58;17.38;;;7.95;;
66421;SDS011;53228;51.380;0.098;2023-10-31T09:40:26;16.42;;;7.35;;
66421;SDS011;53228;51.380;0.098;2023-10-31T09:42:53;22.08;;;8.95;;
66421;SDS011;53228;51.380;0.098;2023-10-31T09:45:21;17.85;;;8.00;;
66421;SDS011;53228;51.380;0.098;2023-10-31T09:47:49;17.30;;;7.57;;
66421;SDS011;53228;51.380;0.098;2023-10-31T09:50:16;17.23;;;8.20;;
66421;SDS011;53228;51.380;0.098;2023-10-31T09:52:44;19.80;;;8.32;;
66421;SDS011;53228;51.380;0.098;2023-10-31T09:55:13;16.58;;;7.18;;
66421;SDS011;53228;51.380;0.098;2023-10-31T09:57:41;20.20;;;7.55;;
66421;SDS011;53228;51.380;0.098;2023-10-31T10:00:09;18.98;;;7.97;;
66421;SDS011;53228;51.380;0.098;2023-10-31T10:02:37;19.02;;;7.45;;
66421;SDS011;53228;51.380;0.098;2023-10-31T10:05:05;18.55;;;7.65;;
66421;SDS011;53228;51.380;0.098;2023-10-31T10:07:33;19.73;;;8.00;;
66421;SDS011;53228;51.380;0.098;2023-10-31T10:10:02;16.58;;;7.97;;
66421;SDS011;53228;51.380;0.098;2023-10-31T10:12:31;25.67;;;10.25;;
66421;SDS011;53228;51.380;0.098;2023-10-31T10:14:58;19.48;;;8.32;;
66421;SDS011;53228;51.380;0.098;2023-10-31T10:17:26;27.08;;;14.60;;
66421;SDS011;53228;51.380;0.098;2023-10-31T10:20:06;18.83;;;8.63;;
66421;SDS011;53228;51.380;0.098;2023-10-31T10:22:41;19.48;;;7.70;;
66421;SDS011;53228;51.380;0.098;2023-10-31T10:25:11;30.48;;;12.10;;
66421;SDS011;53228;51.380;0.098;2023-10-31T10:27:43;30.55;;;12.25;;
66421;SDS011;53228;51.380;0.098;2023-10-31T10:30:14;29.10;;;11.63;;
66421;SDS011;53228;51.380;0.098;2023-10-31T10:32:43;28.73;;;14.18;;
66421;SDS011;53228;51.380;0.098;2023-10-31T10:35:11;21.77;;;11.40;;
66421;SDS011;53228;51.380;0.098;2023-10-31T10:37:39;26.23;;;13.48;;
66421;SDS011;53228;51.380;0.098;2023-10-31T10:40:07;18.05;;;9.48;;
66421;SDS011;53228;51.380;0.098;2023-10-31T10:45:15;25.23;;;8.80;;
66421;SDS011;53228;51.380;0.098;2023-10-31T10:47:46;18.88;;;7.75;;
66421;SDS011;53228;51.380;0.098;2023-10-31T10:50:18;17.98;;;7.70;;
66421;SDS011;53228;51.380;0.098;2023-10-31T10:53:34;18.60;;;7.88;;
66421;SDS011;53228;51.380;0.098;2023-10-31T10:56:07;19.48;;;6.97;;
66421;SDS011;53228;51.380;0.098;2023-10-31T11:01:49;18.50;;;7.28;;
66421;SDS011;53228;51.380;0.098;2023-10-31T11:04:18;19.83;;;7.28;;
66421;SDS011;53228;51.380;0.098;2023-10-31T11:06:46;15.45;;;8.63;;
66421;SDS011;53228;51.380;0.098;2023-10-31T11:09:15;21.55;;;8.27;;
66421;SDS011;53228;51.380;0.098;2023-10-31T11:11:44;21.15;;;8.85;;
66421;SDS011;53228;51.380;0.098;2023-10-31T11:14:16;25.75;;;8.95;;
66421;SDS011;53228;51.380;0.098;2023-10-31T11:16:48;20.02;;;8.20;;
66421;SDS011;53228;51.380;0.098;2023-10-31T11:19:20;21.75;;;8.20;;
66421;SDS011;53228;51.380;0.098;2023-10-31T11:21:55;18.17;;;8.48;;
66421;SDS011;53228;51.380;0.098;2023-10-31T11:24:28;22.00;;;8.32;;
66421;SDS011;53228;51.380;0.098;2023-10-31T11:27:03;18.60;;;8.65;;
66421;SDS011;53228;51.380;0.098;2023-10-31T11:29:32;23.63;;;8.68;;
66421;SDS011;53228;51.380;0.098;2023-10-31T11:32:00;21.42;;;8.88;;
66421;SDS011;53228;51.380;0.098;2023-10-31T11:34:29;24.95;;;9.15;;
66421;SDS011;53228;51.380;0.098;2023-10-31T11:42:51;22.08;;;9.35;;
66421;SDS011;53228;51.380;0.098;2023-10-31T11:47:55;17.02;;;7.57;;
66421;SDS011;53228;51.380;0.098;2023-10-31T11:50:24;19.90;;;8.20;;
66421;SDS011;53228;51.380;0.098;2023-10-31T11:53:05;18.70;;;7.65;;
66421;SDS011;53228;51.380;0.098;2023-10-31T11:55:44;22.17;;;7.50;;
66421;SDS011;53228;51.380;0.098;2023-10-31T11:58:23;18.90;;;8.18;;
66421;SDS011;53228;51.380;0.098;2023-10-31T12:01:01;21.10;;;8.18;;
66421;SDS011;53228;51.380;0.098;2023-10-31T12:03:37;22.17;;;8.07;;
66421;SDS011;53228;51.380;0.098;2023-10-31T12:06:06;20.08;;;7.97;;
66421;SDS011;53228;51.380;0.098;2023-10-31T12:08:36;18.80;;;7.35;;
66421;SDS011;53228;51.380;0.098;2023-10-31T12:11:15;22.20;;;7.80;;
66421;SDS011;53228;51.380;0.098;2023-10-31T12:13:54;24.38;;;8.07;;
66421;SDS011;53228;51.380;0.098;2023-10-31T12:16:28;15.48;;;7.32;;
66421;SDS011;53228;51.380;0.098;2023-10-31T12:18:58;14.27;;;6.68;;
66421;SDS011;53228;51.380;0.098;2023-10-31T12:21:34;21.67;;;7.55;;
66421;SDS011;53228;51.380;0.098;2023-10-31T12:24:06;13.52;;;6.53;;
66421;SDS011;53228;51.380;0.098;2023-10-31T12:26:35;13.85;;;5.95;;
66421;SDS011;53228;51.380;0.098;2023-10-31T12:29:10;13.90;;;6.13;;
66421;SDS011;53228;51.380;0.098;2023-10-31T12:31:39;15.63;;;7.45;;
66421;SDS011;53228;51.380;0.098;2023-10-31T12:34:15;15.00;;;6.88;;
66421;SDS011;53228;51.380;0.098;2023-10-31T12:36:44;13.43;;;7.00;;
66421;SDS011;53228;51.380;0.098;2023-10-31T12:39:14;16.27;;;6.75;;
66421;SDS011;53228;51.380;0.098;2023-10-31T12:41:43;12.40;;;6.07;;
66421;SDS011;53228;51.380;0.098;2023-10-31T12:44:11;12.52;;;6.50;;
66421;SDS011;53228;51.380;0.098;2023-10-31T12:46:44;16.13;;;6.97;;
66421;SDS011;53228;51.380;0.098;2023-10-31T12:49:13;15.80;;;7.30;;
66421;SDS011;53228;51.380;0.098;2023-10-31T12:51:54;17.83;;;13.27;;
66421;SDS011;53228;51.380;0.098;2023-10-31T12:54:27;13.93;;;7.47;;
66421;SDS011;53228;51.380;0.098;2023-10-31T12:57:15;12.25;;;6.70;;
66421;SDS011;53228;51.380;0.098;2023-10-31T12:59:42;32.17;;;6.70;;
66421;SDS011;53228;51.380;0.098;2023-10-31T13:02:10;16.30;;;8.30;;
66421;SDS011;53228;51.380;0.098;2023-10-31T13:04:44;13.93;;;9.68;;
66421;SDS011;53228;51.380;0.098;2023-10-31T13:07:12;13.98;;;6.43;;
66421;SDS011;53228;51.380;0.098;2023-10-31T13:09:39;11.23;;;5.40;;
66421;SDS011;53228;51.380;0.098;2023-10-31T13:12:09;12.57;;;6.95;;
66421;SDS011;53228;51.380;0.098;2023-10-31T13:14:40;10.15;;;5.85;;
66421;SDS011;53228;51.380;0.098;2023-10-31T13:17:08;12.02;;;5.72;;
66421;SDS011;53228;51.380;0.098;2023-10-31T13:19:35;14.40;;;7.78;;
66421;SDS011;53228;51.380;0.098;2023-10-31T13:22:03;14.88;;;7.35;;
66421;SDS011;53228;51.380;0.098;2023-10-31T13:24:31;15.10;;;6.93;;
66421;SDS011;53228;51.380;0.098;2023-10-31T13:26:58;12.45;;;5.85;;
66421;SDS011;53228;51.380;0.098;2023-10-31T13:29:27;12.20;;;4.43;;
66421;SDS011;53228;51.380;0.098;2023-10-31T13:31:55;9.63;;;3.90;;
66421;SDS011;53228;51.380;0.098;2023-10-31T13:34:23;8.10;;;3.50;;
66421;SDS011;53228;51.380;0.098;2023-10-31T13:36:51;7.28;;;4.10;;
66421;SDS011;53228;51.380;0.098;2023-10-31T13:39:21;8.20;;;4.75;;
66421;SDS011;53228;51.380;0.098;2023-10-31T13:41:49;11.02;;;5.28;;
66421;SDS011;53228;51.380;0.098;2023-10-31T13:44:17;7.70;;;5.07;;
66421;SDS011;53228;51.380;0.098;2023-10-31T13:46:45;9.38;;;5.43;;
66421;SDS011;53228;51.380;0.098;2023-10-31T13:49:13;7.93;;;4.35;;
66421;SDS011;53228;51.380;0.098;2023-10-31T13:51:41;8.40;;;4.25;;
66421;SDS011;53228;51.380;0.098;2023-10-31T13:54:09;9.07;;;3.97;;
66421;SDS011;53228;51.380;0.098;2023-10-31T13:56:36;14.65;;;6.15;;
66421;SDS011;53228;51.380;0.098;2023-10-31T13:59:04;10.93;;;3.65;;
66421;SDS011;53228;51.380;0.098;2023-10-31T14:01:31;9.77;;;4.22;;
66421;SDS011;53228;51.380;0.098;2023-10-31T14:03:59;9.23;;;3.70;;
66421;SDS011;53228;51.380;0.098;2023-10-31T14:06:28;11.00;;;4.32;;
66421;SDS011;53228;51.380;0.098;2023-10-31T14:08:59;5.97;;;3.58;;
66421;SDS011;53228;51.380;0.098;2023-10-31T14:11:32;7.63;;;3.90;;
66421;SDS011;53228;51.380;0.098;2023-10-31T14:14:01;7.18;;;4.00;;
66421;SDS011;53228;51.380;0.098;2023-10-31T14:16:37;8.73;;;4.97;;
66421;SDS011;53228;51.380;0.098;2023-10-31T14:19:08;10.07;;;4.82;;
66421;SDS011;53228;51.380;0.098;2023-10-31T14:21:38;13.93;;;4.68;;
66421;SDS011;53228;51.380;0.098;2023-10-31T14:24:06;7.68;;;3.30;;
66421;SDS011;53228;51.380;0.098;2023-10-31T14:26:39;7.35;;;3.20;;
66421;SDS011;53228;51.380;0.098;2023-10-31T14:29:10;10.43;;;2.70;;
66421;SDS011;53228;51.380;0.098;2023-10-31T14:31:39;6.43;;;3.63;;
66421;SDS011;53228;51.380;0.098;2023-10-31T14:34:08;5.97;;;3.00;;
66421;SDS011;53228;51.380;0.098;2023-10-31T14:36:36;4.70;;;2.72;;
66421;SDS011;53228;51.380;0.098;2023-10-31T14:39:03;6.43;;;3.03;;
66421;SDS011;53228;51.380;0.098;2023-10-31T14:41:32;5.43;;;2.25;;
66421;SDS011;53228;51.380;0.098;2023-10-31T14:44:01;4.07;;;2.22;;
66421;SDS011;53228;51.380;0.098;2023-10-31T14:46:29;6.82;;;2.60;;
66421;SDS011;53228;51.380;0.098;2023-10-31T14:48:57;2.80;;;1.83;;
66421;SDS011;53228;51.380;0.098;2023-10-31T14:51:25;6.28;;;2.60;;
66421;SDS011;53228;51.380;0.098;2023-10-31T14:53:53;4.95;;;2.28;;
66421;SDS011;53228;51.380;0.098;2023-10-31T14:56:20;4.88;;;2.85;;
66421;SDS011;53228;51.380;0.098;2023-10-31T14:58:49;5.00;;;2.25;;
66421;SDS011;53228;51.380;0.098;2023-10-31T15:01:17;5.00;;;2.78;;